createdAt,value
2023-01-19T00:03:47.937Z,0.2
2023-01-19T00:13:47.933Z,0.3
2023-01-19T00:23:47.949Z,0.3
2023-01-19T00:33:47.930Z,0.2
2023-01-19T00:43:47.915Z,0
2023-01-19T00:53:47.926Z,-0.1
2023-01-19T01:03:47.904Z,-0.2
2023-01-19T01:13:47.910Z,-0.2
2023-01-19T01:23:47.891Z,-0.3
2023-01-19T01:33:47.888Z,-0.4
2023-01-19T01:43:47.888Z,-0.6
2023-01-19T01:53:47.880Z,-0.7
2023-01-19T02:03:47.890Z,-0.9
2023-01-19T02:13:47.888Z,-0.8
2023-01-19T02:23:47.853Z,-0.7
2023-01-19T02:33:47.856Z,-0.8
2023-01-19T02:43:47.858Z,-0.8
2023-01-19T02:53:47.889Z,-0.8
2023-01-19T03:03:47.847Z,-0.8
2023-01-19T03:13:47.839Z,-0.8
2023-01-19T03:23:47.827Z,-1
2023-01-19T03:33:47.853Z,-1
2023-01-19T03:43:47.839Z,-1.1
2023-01-19T03:53:47.823Z,-1.3
2023-01-19T04:03:47.811Z,-1.4
2023-01-19T04:13:47.831Z,-1.7
2023-01-19T04:23:47.794Z,-1.7
2023-01-19T04:33:47.779Z,-2
2023-01-19T04:43:47.785Z,-1.9
2023-01-19T04:53:47.779Z,-1.9
2023-01-19T05:03:47.791Z,-2
2023-01-19T05:13:48.744Z,-1.9
2023-01-19T05:23:47.766Z,-1.9
2023-01-19T05:33:47.775Z,-2
2023-01-19T05:43:47.750Z,-2.1
2023-01-19T05:53:47.752Z,-2.2
2023-01-19T06:03:47.767Z,-2.3
2023-01-19T06:13:47.761Z,-2.4
2023-01-19T06:23:47.765Z,-2.3
2023-01-19T06:33:47.733Z,-2.3
2023-01-19T06:43:47.725Z,-2.5
2023-01-19T06:53:47.732Z,-2.5
2023-01-19T07:03:47.722Z,-2.5
2023-01-19T07:13:47.745Z,-2.7
2023-01-19T07:23:47.713Z,-2.8
2023-01-19T07:33:47.753Z,-2.7
2023-01-19T07:43:47.725Z,-2.6
2023-01-19T07:53:47.717Z,-2.5
2023-01-19T08:03:47.715Z,-2.4
2023-01-19T08:13:47.694Z,-2.1
2023-01-19T08:23:47.724Z,-1.7
2023-01-19T08:33:47.700Z,-1.3
2023-01-19T08:43:47.741Z,-0.9
2023-01-19T08:53:47.697Z,-0.6
2023-01-19T09:03:47.677Z,-0.3
2023-01-19T09:13:47.670Z,-0.1
2023-01-19T09:23:47.657Z,0
2023-01-19T09:33:47.674Z,0.2
2023-01-19T09:43:47.675Z,0.5
2023-01-19T09:53:47.643Z,1.3
2023-01-19T10:03:47.622Z,3.4
2023-01-19T10:13:47.631Z,5.4
2023-01-19T10:23:47.604Z,6
2023-01-19T10:33:47.603Z,6.8
2023-01-19T10:43:47.622Z,7.6
2023-01-19T10:53:47.581Z,6.9
2023-01-19T11:03:47.614Z,6.4
2023-01-19T11:13:47.542Z,7.7
2023-01-19T11:23:47.547Z,8.6
2023-01-19T11:33:49.755Z,8.2
2023-01-19T11:43:49.208Z,8
2023-01-19T11:53:47.501Z,8.2
2023-01-19T12:03:47.521Z,8.8
2023-01-19T12:13:47.460Z,8.5
2023-01-19T12:23:47.466Z,8.5
2023-01-19T12:33:47.425Z,9
2023-01-19T12:43:47.437Z,9.8
2023-01-19T12:53:47.420Z,9.8
2023-01-19T13:03:47.400Z,9.6
2023-01-19T13:13:47.368Z,9.9
2023-01-19T13:23:47.356Z,9.4
2023-01-19T13:33:47.353Z,9.2
2023-01-19T13:43:47.328Z,9.8
2023-01-19T13:53:47.317Z,10.1
2023-01-19T14:03:47.313Z,9.8
2023-01-19T14:13:47.283Z,9.8
2023-01-19T14:23:47.307Z,8.9
2023-01-19T14:33:47.249Z,8.3
2023-01-19T14:43:47.245Z,7.8
2023-01-19T14:53:47.218Z,7.5
2023-01-19T15:03:47.223Z,7.1
2023-01-19T15:13:47.197Z,6.6
2023-01-19T15:23:47.199Z,6
2023-01-19T15:33:47.197Z,5.5
2023-01-19T15:43:47.158Z,4.8
2023-01-19T15:53:47.161Z,4.1
2023-01-19T16:03:47.133Z,3.5
2023-01-19T16:13:47.145Z,3
2023-01-19T16:23:47.113Z,2.5
2023-01-19T16:33:47.156Z,1.9
2023-01-19T16:43:47.121Z,1.6
2023-01-19T16:53:47.100Z,1.3
2023-01-19T17:03:47.106Z,1.1
2023-01-19T17:13:47.092Z,0.9
2023-01-19T17:23:47.060Z,0.8
2023-01-19T17:33:47.078Z,0.6
2023-01-19T17:43:47.057Z,0.4
2023-01-19T17:53:47.044Z,0.1
2023-01-19T18:03:47.046Z,0
2023-01-19T18:13:47.035Z,-0.1
2023-01-19T18:23:47.024Z,-0.3
2023-01-19T18:33:47.082Z,-0.4
2023-01-19T18:43:47.023Z,-0.5
2023-01-19T18:53:47.024Z,-0.4
2023-01-19T19:03:47.025Z,-0.4
2023-01-19T19:13:46.999Z,-0.5
2023-01-19T19:23:47.004Z,-0.6
2023-01-19T19:33:46.993Z,-1
2023-01-19T19:43:46.991Z,-1
2023-01-19T19:53:48.397Z,-1
2023-01-19T20:03:46.959Z,-1
2023-01-19T20:13:46.950Z,-1.1
2023-01-19T20:23:46.955Z,-1.3
2023-01-19T20:33:46.956Z,-1.6
2023-01-19T20:43:46.933Z,-1.8
2023-01-19T20:53:46.933Z,-1.8
2023-01-19T21:03:46.942Z,-1.7
2023-01-19T21:13:46.926Z,-1.7
2023-01-19T21:23:46.914Z,-2
2023-01-19T21:33:46.928Z,-2.1
2023-01-19T21:43:46.922Z,-2.3
2023-01-19T21:53:46.913Z,-2.4
2023-01-19T22:03:46.975Z,-2.6
2023-01-19T22:13:46.907Z,-2.6
2023-01-19T22:23:46.906Z,-2.8
2023-01-19T22:33:46.900Z,-2.8
2023-01-19T22:43:46.894Z,-3.1
2023-01-19T22:53:46.896Z,-3.1
2023-01-19T23:03:46.899Z,-3.1
2023-01-19T23:13:46.892Z,-3
2023-01-19T23:23:46.884Z,-3.2
2023-01-19T23:33:46.888Z,-3.2
2023-01-19T23:43:46.878Z,-3
2023-01-19T23:53:46.870Z,-3.1
